Time;durP1;ratioP1;P1;durP2;ratioP2;P2;SDS_P1;SDS_P2;PMS_P1;PMS_P2;Temp;Humidity;BMP_temperature;BMP_pressure;BME280_temperature;BME280_humidity;BME280_pressure;Samples;Min_cycle;Max_cycle;Signal;HPM_P1;HPM_P2
2022/04/29 00:02:11;;;;;;;9.63;8.83;;;10.30;99.90;;;;;;4970187;28;21708;-70
2022/04/29 00:04:37;;;;;;;8.90;8.20;;;10.20;99.90;;;;;;4972589;28;20184;-70
2022/04/29 00:07:06;;;;;;;9.80;8.73;;;10.20;99.90;;;;;;4969089;28;20463;-71
2022/04/29 00:09:31;;;;;;;8.90;8.10;;;10.10;99.90;;;;;;4971462;28;20852;-75
2022/04/29 00:11:57;;;;;;;12.43;11.23;;;10.00;99.90;;;;;;4969597;28;20530;-70
2022/04/29 00:14:25;;;;;;;11.30;10.30;;;10.00;99.90;;;;;;4970911;28;20275;-70
2022/04/29 00:16:51;;;;;;;10.57;9.57;;;9.90;99.90;;;;;;4970027;28;20214;-73
2022/04/29 00:19:17;;;;;;;9.77;8.80;;;9.80;99.90;;;;;;4967424;28;20443;-70
2022/04/29 00:21:43;;;;;;;10.10;9.30;;;9.70;99.90;;;;;;4970111;28;20215;-70
2022/04/29 00:24:09;;;;;;;12.00;11.00;;;9.60;99.90;;;;;;4971265;28;20448;-70
2022/04/29 00:26:37;;;;;;;10.60;9.80;;;9.60;99.90;;;;;;4970976;28;20204;-70
2022/04/29 00:29:03;;;;;;;10.20;9.23;;;9.60;99.90;;;;;;4970082;28;20498;-70
2022/04/29 00:31:30;;;;;;;10.00;9.10;;;9.60;99.90;;;;;;4970779;28;21003;-71
2022/04/29 00:33:56;;;;;;;14.53;9.63;;;9.60;99.90;;;;;;4971267;28;20964;-72
2022/04/29 00:36:21;;;;;;;11.00;9.90;;;9.60;99.90;;;;;;4971062;28;20447;-70
2022/04/29 00:38:47;;;;;;;11.57;10.57;;;9.60;99.90;;;;;;4971592;28;20462;-70
2022/04/29 00:41:17;;;;;;;11.00;9.90;;;9.70;99.90;;;;;;4968374;28;20207;-70
2022/04/29 00:43:43;;;;;;;10.73;9.73;;;9.70;99.90;;;;;;4968808;28;20582;-69
2022/04/29 00:46:08;;;;;;;12.10;10.17;;;9.70;99.90;;;;;;4968539;28;20453;-70
2022/04/29 00:48:34;;;;;;;10.40;9.40;;;9.70;99.90;;;;;;4970167;28;20176;-74
2022/04/29 00:51:00;;;;;;;10.50;9.37;;;9.70;99.90;;;;;;4967439;28;20188;-69
2022/04/29 00:53:27;;;;;;;11.00;9.77;;;9.70;99.90;;;;;;4971253;28;20210;-69
2022/04/29 00:55:56;;;;;;;9.90;9.10;;;9.60;99.90;;;;;;4969914;28;20268;-70
2022/04/29 00:58:33;;;;;;;10.57;9.57;;;9.60;99.90;;;;;;4969515;28;20530;-71
2022/04/29 01:01:02;;;;;;;9.80;9.00;;;9.60;99.90;;;;;;4969238;28;20467;-69
2022/04/29 01:03:28;;;;;;;11.37;10.37;;;9.60;99.90;;;;;;4968892;28;20894;-69
2022/04/29 01:05:54;;;;;;;12.47;11.37;;;9.50;99.90;;;;;;4970404;28;20941;-72
2022/04/29 01:08:20;;;;;;;10.23;9.30;;;9.50;99.90;;;;;;4970597;28;20478;-70
2022/04/29 01:10:46;;;;;;;11.90;10.73;;;9.50;99.90;;;;;;4967828;28;20435;-69
2022/04/29 01:13:12;;;;;;;12.40;11.20;;;9.40;99.90;;;;;;4970771;28;21278;-70
2022/04/29 01:15:38;;;;;;;11.77;10.50;;;9.30;99.90;;;;;;4968486;28;20441;-70
2022/04/29 01:18:06;;;;;;;12.87;11.40;;;9.40;99.90;;;;;;4970846;28;20200;-70
2022/04/29 01:20:33;;;;;;;10.50;9.77;;;9.40;99.90;;;;;;4968600;28;20191;-70
2022/04/29 01:23:07;;;;;;;12.17;11.13;;;9.40;99.90;;;;;;4970415;28;20452;-70
2022/04/29 01:25:33;;;;;;;10.67;9.60;;;9.40;99.90;;;;;;4970483;28;20443;-70
2022/04/29 01:27:59;;;;;;;11.87;10.70;;;9.30;99.90;;;;;;4971309;28;20486;-71
2022/04/29 01:30:25;;;;;;;11.37;10.27;;;9.30;99.90;;;;;;4973134;28;20172;-70
2022/04/29 01:32:53;;;;;;;12.40;11.20;;;9.30;99.90;;;;;;4975054;28;20447;-70
2022/04/29 01:35:19;;;;;;;11.60;10.47;;;9.20;99.90;;;;;;4973645;28;20542;-70
2022/04/29 01:37:46;;;;;;;12.33;10.50;;;9.20;99.90;;;;;;4973049;28;20554;-71
2022/04/29 01:40:12;;;;;;;11.57;10.47;;;9.20;99.90;;;;;;4973223;28;20221;-70
2022/04/29 01:42:39;;;;;;;10.27;9.33;;;9.20;99.90;;;;;;4973687;28;20475;-69
2022/04/29 01:45:05;;;;;;;11.60;10.60;;;9.20;99.90;;;;;;4973375;28;20439;-70
2022/04/29 01:47:30;;;;;;;11.43;10.33;;;9.20;99.90;;;;;;4973833;28;20459;-70
2022/04/29 01:49:57;;;;;;;11.37;10.40;;;9.20;99.90;;;;;;4973534;28;20497;-70
2022/04/29 01:52:22;;;;;;;11.80;10.50;;;9.10;99.90;;;;;;4975315;28;20234;-70
2022/04/29 01:54:48;;;;;;;11.10;10.07;;;9.00;99.90;;;;;;4973294;28;20819;-72
2022/04/29 01:57:13;;;;;;;12.63;11.40;;;9.00;99.90;;;;;;4973916;28;20299;-70
2022/04/29 01:59:39;;;;;;;11.97;10.87;;;9.00;99.90;;;;;;4972620;28;20676;-70
2022/04/29 02:02:07;;;;;;;11.67;10.57;;;9.00;99.90;;;;;;4973050;28;20212;-70
2022/04/29 02:04:36;;;;;;;12.80;11.80;;;9.00;99.90;;;;;;4971676;28;20180;-73
2022/04/29 02:07:03;;;;;;;13.33;11.47;;;8.90;99.90;;;;;;4973889;28;20459;-70
2022/04/29 02:09:29;;;;;;;13.23;12.03;;;8.90;99.90;;;;;;4970409;28;20451;-72
2022/04/29 02:12:06;;;;;;;12.87;11.60;;;8.80;99.90;;;;;;4972623;28;20452;-72
2022/04/29 02:14:37;;;;;;;13.10;11.97;;;8.80;99.90;;;;;;4973456;28;20191;-72
2022/04/29 02:17:05;;;;;;;12.63;11.53;;;8.90;99.90;;;;;;4970056;28;20866;-72
2022/04/29 02:19:32;;;;;;;12.50;11.50;;;8.90;99.90;;;;;;4971945;28;20551;-72
2022/04/29 02:21:58;;;;;;;12.50;11.30;;;8.90;99.90;;;;;;4970394;28;21015;-72
2022/04/29 02:24:23;;;;;;;12.63;11.53;;;8.90;99.90;;;;;;4973673;28;20435;-72
2022/04/29 02:26:49;;;;;;;13.23;11.93;;;8.80;99.90;;;;;;4972418;28;21051;-69
2022/04/29 02:29:14;;;;;;;14.77;11.80;;;8.70;99.90;;;;;;4972763;28;20523;-69
2022/04/29 02:31:40;;;;;;;13.17;11.70;;;8.70;99.90;;;;;;4972628;28;20187;-70
2022/04/29 02:34:06;;;;;;;12.87;11.77;;;8.60;99.90;;;;;;4971324;28;20177;-70
2022/04/29 02:36:32;;;;;;;12.30;11.00;;;8.60;99.90;;;;;;4971006;28;20242;-72
2022/04/29 02:38:58;;;;;;;12.37;11.10;;;8.60;99.90;;;;;;4971512;28;20184;-72
2022/04/29 02:41:23;;;;;;;12.97;11.67;;;8.60;99.90;;;;;;4972996;28;20470;-69
2022/04/29 02:43:49;;;;;;;14.20;12.90;;;8.60;99.90;;;;;;4972552;28;20431;-70
2022/04/29 02:46:15;;;;;;;12.10;10.90;;;8.60;99.90;;;;;;4974645;28;20173;-69
2022/04/29 02:48:41;;;;;;;12.93;11.63;;;8.60;99.90;;;;;;4955356;28;20438;-70
2022/04/29 02:51:07;;;;;;;12.40;11.33;;;8.60;99.90;;;;;;4971246;28;20275;-71
2022/04/29 02:53:32;;;;;;;13.23;11.93;;;8.60;99.90;;;;;;4970556;28;20439;-69
2022/04/29 02:55:58;;;;;;;12.67;11.43;;;8.60;99.90;;;;;;4971371;28;20570;-73
2022/04/29 02:58:23;;;;;;;12.70;11.50;;;8.60;99.90;;;;;;4971605;28;20291;-71
2022/04/29 03:00:49;;;;;;;12.40;11.37;;;8.70;99.90;;;;;;4972795;28;20263;-70
2022/04/29 03:03:14;;;;;;;13.23;12.00;;;8.60;99.90;;;;;;4970684;28;20593;-69
2022/04/29 03:05:40;;;;;;;16.07;11.87;;;8.50;99.90;;;;;;4971568;28;20176;-71
2022/04/29 03:08:06;;;;;;;12.47;11.37;;;8.50;99.90;;;;;;4973613;28;20211;-69
2022/04/29 03:10:33;;;;;;;14.03;12.80;;;8.40;99.90;;;;;;4972359;28;20263;-69
2022/04/29 03:12:59;;;;;;;12.83;11.73;;;8.50;99.90;;;;;;4972591;28;20444;-70
2022/04/29 03:15:25;;;;;;;12.53;11.30;;;8.40;99.90;;;;;;4972322;28;20563;-70
2022/04/29 03:20:38;;;;;;;14.40;13.00;;;8.40;99.90;;;;;;4971075;28;20555;-70
2022/04/29 03:23:05;;;;;;;14.20;12.90;;;8.40;99.90;;;;;;4971448;28;20436;-70
2022/04/29 03:25:31;;;;;;;13.20;11.30;;;8.30;99.90;;;;;;4970679;28;20489;-70
2022/04/29 03:27:56;;;;;;;13.13;11.93;;;8.20;99.90;;;;;;4969903;28;20981;-70
2022/04/29 03:30:22;;;;;;;12.80;11.70;;;8.30;99.90;;;;;;4972926;28;20246;-71
2022/04/29 03:32:55;;;;;;;13.50;12.30;;;8.20;99.90;;;;;;4969961;28;20275;-69
2022/04/29 03:35:21;;;;;;;13.23;12.10;;;8.20;99.90;;;;;;4971354;28;20188;-72
2022/04/29 03:37:48;;;;;;;12.73;11.43;;;8.20;99.90;;;;;;4972110;28;21002;-72
2022/04/29 03:40:14;;;;;;;12.53;11.53;;;8.20;99.90;;;;;;4972461;28;20442;-69
2022/04/29 03:42:40;;;;;;;15.07;13.47;;;8.10;99.90;;;;;;4967372;28;20459;-70
2022/04/29 03:45:06;;;;;;;15.50;13.03;;;8.10;99.90;;;;;;4970755;28;20199;-70
2022/04/29 03:47:32;;;;;;;15.37;12.50;;;8.10;99.90;;;;;;4970542;28;20200;-70
2022/04/29 03:49:57;;;;;;;13.30;12.00;;;8.10;99.90;;;;;;4967916;28;20440;-71
2022/04/29 03:52:23;;;;;;;20.23;18.10;;;8.10;99.90;;;;;;4970800;28;20585;-70
2022/04/29 03:54:48;;;;;;;18.53;16.87;;;8.10;99.90;;;;;;4968473;28;20650;-70
2022/04/29 03:57:14;;;;;;;15.03;12.40;;;8.00;99.90;;;;;;4970412;28;20677;-72
2022/04/29 03:59:39;;;;;;;13.00;11.70;;;8.00;99.90;;;;;;4971299;28;20184;-70
2022/04/29 04:02:05;;;;;;;13.43;12.00;;;8.10;99.90;;;;;;4971218;28;20219;-71
2022/04/29 04:04:31;;;;;;;14.17;12.40;;;8.10;99.90;;;;;;4973046;28;20704;-70
2022/04/29 04:07:01;;;;;;;13.10;11.80;;;8.10;99.90;;;;;;4969238;28;20227;-71
2022/04/29 04:09:27;;;;;;;12.47;11.17;;;8.10;99.90;;;;;;4964063;28;20514;-70
2022/04/29 04:11:53;;;;;;;12.13;11.00;;;8.20;99.90;;;;;;4971257;28;20442;-70
2022/04/29 04:14:18;;;;;;;14.93;13.50;;;8.20;99.90;;;;;;4957220;28;20180;-71
2022/04/29 04:16:45;;;;;;;13.70;12.50;;;8.20;99.90;;;;;;4970415;28;20545;-72
2022/04/29 04:19:11;;;;;;;14.10;12.80;;;8.20;99.90;;;;;;4969698;28;20191;-70
2022/04/29 04:21:36;;;;;;;13.30;12.00;;;8.20;99.90;;;;;;4969271;28;20467;-72
2022/04/29 04:24:02;;;;;;;13.23;12.10;;;8.20;99.90;;;;;;4970592;28;20184;-69
2022/04/29 04:26:28;;;;;;;13.37;12.17;;;8.20;99.90;;;;;;4953365;28;20552;-69
2022/04/29 04:28:53;;;;;;;13.33;11.93;;;8.30;99.90;;;;;;4968383;28;20454;-70
2022/04/29 04:31:24;;;;;;;14.03;12.70;;;8.40;99.90;;;;;;4970608;28;20184;-70
2022/04/29 04:33:53;;;;;;;12.40;11.20;;;8.50;99.90;;;;;;4969079;28;20187;-70
2022/04/29 04:36:20;;;;;;;13.33;12.03;;;8.60;99.90;;;;;;4969419;28;20474;-69
2022/04/29 04:38:47;;;;;;;14.50;13.10;;;8.60;99.90;;;;;;4970042;28;20498;-69
2022/04/29 04:41:16;;;;;;;14.30;12.27;;;8.60;99.90;;;;;;4967346;28;20475;-69
2022/04/29 04:43:45;;;;;;;13.90;12.60;;;8.60;99.90;;;;;;4968273;28;20475;-69
2022/04/29 04:46:12;;;;;;;16.23;14.63;;;8.60;99.90;;;;;;4971266;28;20459;-70
2022/04/29 04:48:37;;;;;;;16.57;15.00;;;8.60;99.90;;;;;;4968610;28;20894;-70
2022/04/29 04:51:04;;;;;;;13.47;12.23;;;8.70;99.90;;;;;;4970281;28;20531;-70
2022/04/29 04:53:30;;;;;;;11.97;10.97;;;8.80;99.90;;;;;;4970458;28;20586;-71
2022/04/29 04:55:56;;;;;;;12.27;11.10;;;9.00;99.90;;;;;;4969028;28;20486;-71
2022/04/29 04:58:21;;;;;;;12.70;11.53;;;9.20;99.90;;;;;;4969244;28;20909;-72
2022/04/29 05:00:47;;;;;;;11.67;10.47;;;9.30;99.90;;;;;;4972024;28;20805;-70
2022/04/29 05:03:12;;;;;;;13.70;12.50;;;9.40;99.90;;;;;;4974414;28;20204;-71
2022/04/29 05:05:39;;;;;;;14.27;12.87;;;9.30;99.90;;;;;;4974894;28;20188;-70
2022/04/29 05:08:05;;;;;;;13.10;12.00;;;9.40;99.90;;;;;;4975599;28;20251;-73
2022/04/29 05:10:31;;;;;;;13.43;12.17;;;9.70;99.90;;;;;;4972700;28;20439;-70
2022/04/29 05:12:56;;;;;;;14.10;12.90;;;9.90;99.90;;;;;;4974315;28;20450;-72
2022/04/29 05:15:22;;;;;;;16.33;12.70;;;10.10;99.90;;;;;;4974851;28;20259;-69
2022/04/29 05:17:48;;;;;;;13.20;11.90;;;10.20;99.90;;;;;;4975367;28;20200;-70
2022/04/29 05:20:15;;;;;;;12.70;11.50;;;10.20;99.90;;;;;;4972861;28;20216;-71
2022/04/29 05:22:41;;;;;;;14.67;13.33;;;10.20;99.90;;;;;;4975201;28;20219;-70
2022/04/29 05:25:08;;;;;;;14.50;13.17;;;10.30;99.90;;;;;;4973911;28;20862;-70
2022/04/29 05:27:33;;;;;;;12.80;11.57;;;10.40;99.90;;;;;;4975066;28;20474;-70
2022/04/29 05:29:59;;;;;;;17.67;14.57;;;10.40;99.90;;;;;;4974387;28;20435;-70
2022/04/29 05:32:25;;;;;;;15.13;13.63;;;10.50;99.90;;;;;;4956038;28;20558;-71
2022/04/29 05:34:52;;;;;;;13.73;12.53;;;10.60;99.90;;;;;;4974871;28;20447;-70
2022/04/29 05:37:18;;;;;;;15.80;12.87;;;10.50;99.90;;;;;;4956736;28;20463;-71
2022/04/29 05:42:28;;;;;;;14.87;13.40;;;10.70;99.90;;;;;;4969834;28;20482;-70
2022/04/29 05:44:54;;;;;;;14.60;13.30;;;10.80;99.90;;;;;;4972028;28;20486;-73
2022/04/29 05:47:20;;;;;;;13.80;12.50;;;10.90;99.90;;;;;;4972164;28;20192;-71
2022/04/29 05:49:45;;;;;;;19.13;14.53;;;11.10;99.90;;;;;;4972501;28;20184;-70
2022/04/29 05:52:11;;;;;;;17.30;15.40;;;11.10;99.90;;;;;;4974871;28;20654;-70
2022/04/29 05:54:37;;;;;;;14.10;12.90;;;11.30;99.90;;;;;;4973895;28;20196;-70
2022/04/29 05:57:03;;;;;;;13.67;12.50;;;11.50;99.90;;;;;;4972771;28;20303;-70
2022/04/29 05:59:30;;;;;;;16.13;14.40;;;11.60;99.90;;;;;;4972334;28;20952;-70
2022/04/29 06:01:56;;;;;;;16.10;14.43;;;11.80;99.90;;;;;;4970163;28;20475;-70
2022/04/29 06:04:22;;;;;;;15.70;14.10;;;12.00;99.90;;;;;;4972676;28;20799;-70
2022/04/29 06:06:48;;;;;;;13.67;12.50;;;12.30;99.90;;;;;;4972919;28;20463;-70
2022/04/29 06:09:13;;;;;;;16.07;13.50;;;12.50;99.90;;;;;;4970625;28;20298;-72
2022/04/29 06:11:39;;;;;;;14.17;12.80;;;12.80;99.90;;;;;;4972501;28;20275;-70
2022/04/29 06:14:04;;;;;;;13.80;12.50;;;12.90;99.90;;;;;;4972238;28;20184;-70
2022/04/29 06:16:30;;;;;;;14.57;13.30;;;13.00;99.90;;;;;;4973792;28;20235;-72
2022/04/29 06:18:56;;;;;;;12.83;11.53;;;13.20;99.90;;;;;;4972517;28;20195;-71
2022/04/29 06:21:21;;;;;;;13.80;12.63;;;13.30;99.90;;;;;;4969622;28;20215;-71
2022/04/29 06:23:48;;;;;;;13.50;12.10;;;13.50;99.90;;;;;;4969502;28;21538;-75
2022/04/29 06:26:14;;;;;;;12.80;11.63;;;13.60;99.90;;;;;;4973533;28;20184;-75
2022/04/29 06:28:39;;;;;;;15.70;14.40;;;13.60;99.90;;;;;;4973285;28;20827;-74
2022/04/29 06:31:05;;;;;;;14.53;13.13;;;13.80;99.90;;;;;;4972742;28;20180;-71
2022/04/29 06:33:33;;;;;;;12.43;11.37;;;14.00;99.90;;;;;;4953183;28;20227;-77
2022/04/29 06:35:58;;;;;;;14.93;13.63;;;14.20;99.90;;;;;;4939708;28;21049;-70
2022/04/29 06:38:24;;;;;;;14.40;13.10;;;14.40;99.90;;;;;;4968439;28;20960;-75
2022/04/29 06:40:52;;;;;;;14.13;12.90;;;14.60;99.90;;;;;;4971784;28;20172;-71
2022/04/29 06:43:19;;;;;;;14.87;13.50;;;14.90;99.90;;;;;;4967017;28;20184;-72
2022/04/29 06:45:45;;;;;;;13.37;12.07;;;15.20;99.90;;;;;;4973789;28;20526;-74
2022/04/29 06:48:10;;;;;;;15.00;13.70;;;15.10;99.90;;;;;;4972742;28;20538;-72
2022/04/29 06:50:36;;;;;;;15.23;13.83;;;15.30;99.90;;;;;;4972576;28;20181;-72
2022/04/29 06:53:01;;;;;;;13.47;12.03;;;15.50;99.90;;;;;;4967787;28;20282;-71
2022/04/29 06:55:27;;;;;;;14.27;12.10;;;15.80;99.80;;;;;;4971412;28;20224;-71
2022/04/29 06:57:53;;;;;;;10.80;9.90;;;16.10;98.60;;;;;;4970344;28;20204;-71
2022/04/29 07:00:19;;;;;;;12.90;11.70;;;16.30;98.40;;;;;;4971267;28;20813;-70
2022/04/29 07:02:45;;;;;;;11.57;10.37;;;15.90;96.80;;;;;;4968559;28;20196;-73
2022/04/29 07:05:11;;;;;;;12.37;11.07;;;16.10;97.80;;;;;;4969888;28;20447;-70
2022/04/29 07:07:36;;;;;;;12.63;11.57;;;16.20;95.00;;;;;;4970609;28;20760;-72
2022/04/29 07:10:03;;;;;;;13.07;11.77;;;16.30;95.30;;;;;;4971361;28;20522;-70
2022/04/29 07:12:31;;;;;;;11.93;10.83;;;16.40;93.30;;;;;;4969313;28;20184;-72
2022/04/29 07:14:57;;;;;;;11.43;10.23;;;16.20;93.10;;;;;;4966528;28;20462;-73
2022/04/29 07:17:23;;;;;;;12.23;11.03;;;16.30;93.90;;;;;;4970886;28;20790;-69
2022/04/29 07:19:50;;;;;;;13.13;11.20;;;16.30;93.30;;;;;;4966531;28;20448;-70
2022/04/29 07:22:16;;;;;;;11.20;10.17;;;16.10;92.40;;;;;;4969602;28;20215;-70
2022/04/29 07:24:42;;;;;;;12.40;11.27;;;16.00;92.20;;;;;;4968668;28;20439;-72
2022/04/29 07:27:08;;;;;;;11.50;10.50;;;16.00;92.90;;;;;;4969740;28;20479;-70
2022/04/29 07:29:33;;;;;;;12.20;11.00;;;16.00;92.20;;;;;;4970042;28;20318;-71
2022/04/29 07:31:59;;;;;;;12.37;11.07;;;16.00;91.80;;;;;;4969054;28;20182;-71
2022/04/29 07:41:44;;;;;;;11.90;10.77;;;16.00;92.30;;;;;;4967337;28;20561;-70
2022/04/29 07:42:38;;;;;;;11.43;10.23;;;16.50;92.30;;;;;;4966520;28;20525;-75
2022/04/29 07:45:03;;;;;;;11.70;10.60;;;16.80;91.60;;;;;;4967063;28;20462;-70
2022/04/29 07:47:29;;;;;;;11.50;10.40;;;16.90;91.10;;;;;;4970060;28;20740;-71
2022/04/29 07:49:54;;;;;;;11.30;10.33;;;17.10;91.10;;;;;;4971011;28;20284;-71
2022/04/29 07:52:20;;;;;;;13.30;10.67;;;17.30;90.80;;;;;;4969742;28;20184;-71
2022/04/29 07:54:45;;;;;;;13.00;11.70;;;17.60;90.10;;;;;;4967178;28;20169;-70
2022/04/29 07:57:11;;;;;;;10.67;9.60;;;17.80;88.70;;;;;;4951976;28;20279;-66
2022/04/29 07:59:37;;;;;;;11.73;10.70;;;17.70;87.90;;;;;;4955110;28;20249;-68
2022/04/29 08:02:03;;;;;;;10.93;9.83;;;17.70;86.60;;;;;;4969494;28;20200;-68
2022/04/29 08:04:28;;;;;;;11.40;10.20;;;17.60;86.90;;;;;;4968633;28;20442;-68
2022/04/29 08:06:54;;;;;;;11.80;10.80;;;17.30;85.70;;;;;;4970602;28;20295;-69
2022/04/29 08:09:20;;;;;;;12.07;10.93;;;17.30;87.60;;;;;;4970959;28;21790;-67
2022/04/29 08:11:46;;;;;;;11.00;9.90;;;17.10;87.60;;;;;;4973524;28;20177;-68
2022/04/29 08:14:11;;;;;;;10.23;9.23;;;17.30;86.60;;;;;;4965933;28;20185;-67
2022/04/29 08:16:37;;;;;;;11.00;9.90;;;17.30;85.30;;;;;;4970401;28;20275;-68
2022/04/29 08:19:03;;;;;;;10.57;9.50;;;17.20;84.60;;;;;;4970041;28;20191;-67
2022/04/29 08:21:28;;;;;;;10.60;9.60;;;17.30;84.30;;;;;;4970143;28;20207;-67
2022/04/29 08:23:54;;;;;;;11.80;9.70;;;17.40;82.70;;;;;;4965712;28;20431;-70
2022/04/29 08:26:19;;;;;;;17.37;11.10;;;17.60;84.40;;;;;;4970902;28;20304;-68
2022/04/29 08:28:45;;;;;;;12.50;11.40;;;17.60;82.80;;;;;;4969442;28;20183;-69
2022/04/29 08:31:11;;;;;;;13.77;11.20;;;18.00;86.50;;;;;;4967938;28;20184;-69
2022/04/29 08:33:36;;;;;;;10.43;9.53;;;18.50;84.60;;;;;;4966937;28;20271;-69
2022/04/29 08:36:03;;;;;;;10.63;9.53;;;18.80;82.10;;;;;;4970391;28;20643;-67
2022/04/29 08:38:28;;;;;;;10.40;9.50;;;19.30;79.90;;;;;;4972793;28;20196;-68
2022/04/29 08:41:00;;;;;;;10.80;9.90;;;19.70;78.70;;;;;;4972760;28;20445;-69
2022/04/29 08:43:26;;;;;;;12.03;10.73;;;20.10;80.20;;;;;;4969562;28;20195;-67
2022/04/29 08:45:52;;;;;;;9.40;8.50;;;19.80;72.20;;;;;;4974501;28;20435;-69
2022/04/29 08:48:18;;;;;;;11.03;10.03;;;19.90;73.80;;;;;;4954493;28;20819;-67
2022/04/29 08:50:44;;;;;;;9.73;8.80;;;19.50;72.00;;;;;;4973828;28;20172;-69
2022/04/29 08:53:10;;;;;;;10.53;9.40;;;19.60;76.00;;;;;;4968337;28;21094;-70
2022/04/29 09:01:15;;;;;;;9.23;8.30;;;20.50;67.50;;;;;;4972196;28;20952;-70
2022/04/29 09:03:42;;;;;;;10.50;9.33;;;20.60;65.70;;;;;;4969113;28;20446;-70
2022/04/29 09:06:08;;;;;;;12.17;8.97;;;20.50;65.30;;;;;;4973415;28;20439;-70
2022/04/29 09:08:46;;;;;;;9.30;8.47;;;20.60;65.10;;;;;;4972068;28;20435;-68
2022/04/29 09:11:22;;;;;;;7.90;7.20;;;20.50;64.20;;;;;;4968027;28;20489;-69
2022/04/29 09:13:48;;;;;;;9.33;8.53;;;20.70;60.60;;;;;;4966201;28;20443;-69
2022/04/29 09:16:14;;;;;;;7.10;6.40;;;20.50;61.60;;;;;;4967773;28;20450;-70
2022/04/29 09:18:41;;;;;;;9.60;8.70;;;21.10;61.40;;;;;;4969415;28;20180;-67
2022/04/29 09:21:12;;;;;;;7.37;6.67;;;21.50;59.50;;;;;;4969922;28;20446;-67
2022/04/29 09:23:54;;;;;;;8.63;7.47;;;22.00;58.40;;;;;;4966499;28;20432;-70
2022/04/29 09:26:33;;;;;;;8.60;7.70;;;22.20;56.20;;;;;;4968828;28;20547;-67
2022/04/29 09:29:11;;;;;;;7.67;7.07;;;23.00;55.70;;;;;;4969846;28;20449;-69
2022/04/29 09:31:53;;;;;;;7.70;7.10;;;22.60;52.80;;;;;;4967218;28;20450;-70
2022/04/29 09:34:20;;;;;;;8.30;7.50;;;22.60;53.70;;;;;;4964266;28;20454;-70
2022/04/29 09:36:46;;;;;;;8.97;8.27;;;22.10;54.70;;;;;;4968152;28;20485;-68
2022/04/29 09:39:27;;;;;;;7.97;7.27;;;22.00;54.70;;;;;;4969749;28;20439;-71
2022/04/29 09:41:57;;;;;;;7.40;6.70;;;22.30;53.40;;;;;;4969936;28;20662;-69
2022/04/29 09:44:27;;;;;;;7.97;7.37;;;22.30;53.30;;;;;;4967276;28;20522;-67
2022/04/29 09:46:53;;;;;;;7.53;6.83;;;22.00;53.90;;;;;;4969684;28;21309;-70
2022/04/29 09:49:19;;;;;;;8.17;7.57;;;22.00;53.90;;;;;;4958823;28;20424;-70
2022/04/29 09:51:51;;;;;;;8.20;7.40;;;22.00;54.00;;;;;;4970104;28;20184;-70
2022/04/29 09:54:24;;;;;;;8.17;7.47;;;21.80;53.30;;;;;;4969923;28;20443;-70
2022/04/29 09:57:11;;;;;;;7.80;7.20;;;21.30;54.10;;;;;;4972433;28;20570;-70
2022/04/29 09:59:40;;;;;;;8.63;7.83;;;21.60;55.40;;;;;;4972285;28;20473;-68
2022/04/29 10:02:06;;;;;;;9.93;8.90;;;21.20;54.60;;;;;;4975212;28;20460;-70
2022/04/29 10:04:37;;;;;;;8.93;7.83;;;21.00;54.60;;;;;;4971460;28;20739;-70
2022/04/29 10:07:04;;;;;;;6.63;6.13;;;21.20;54.80;;;;;;4975504;28;20471;-70
2022/04/29 10:09:35;;;;;;;10.40;7.20;;;21.80;53.40;;;;;;4973762;28;20432;-67
2022/04/29 10:12:04;;;;;;;7.00;6.50;;;22.30;52.20;;;;;;4975075;28;20430;-69
2022/04/29 10:14:31;;;;;;;8.10;7.00;;;21.60;52.10;;;;;;4971381;28;20457;-69
2022/04/29 10:22:46;;;;;;;6.30;5.90;;;22.00;53.50;;;;;;4972725;28;20474;-68
2022/04/29 10:25:12;;;;;;;6.07;5.57;;;22.70;52.00;;;;;;4973838;28;20478;-70
2022/04/29 10:27:42;;;;;;;5.90;5.40;;;22.80;50.10;;;;;;4974617;28;20546;-70
2022/04/29 10:30:08;;;;;;;5.97;5.37;;;23.00;49.50;;;;;;4974786;28;20428;-67
2022/04/29 10:32:58;;;;;;;5.23;4.87;;;22.60;48.60;;;;;;4973963;28;20420;-66
2022/04/29 10:35:49;;;;;;;5.90;5.30;;;22.60;49.50;;;;;;4970594;28;20423;-70
2022/04/29 10:38:27;;;;;;;5.70;5.20;;;23.40;49.20;;;;;;4974562;28;20449;-68
2022/04/29 10:41:21;;;;;;;5.80;5.30;;;23.70;48.00;;;;;;4974676;28;20423;-70
2022/04/29 10:44:03;;;;;;;6.33;5.80;;;23.50;47.20;;;;;;4970725;28;20506;-69
2022/04/29 10:46:36;;;;;;;5.93;5.43;;;23.20;47.00;;;;;;4974722;28;20454;-70
2022/04/29 10:49:28;;;;;;;5.93;5.50;;;23.20;46.70;;;;;;4974334;28;20440;-71
2022/04/29 10:52:02;;;;;;;7.07;5.50;;;23.80;46.50;;;;;;4966056;28;20487;-67
2022/04/29 10:54:34;;;;;;;5.03;4.50;;;25.30;45.80;;;;;;4970759;28;20798;-70
2022/04/29 10:57:02;;;;;;;5.97;5.47;;;26.40;44.10;;;;;;4973753;28;20511;-69
2022/04/29 10:59:47;;;;;;;5.30;5.00;;;27.10;42.70;;;;;;4973880;28;20444;-67
2022/04/29 11:02:26;;;;;;;4.97;4.67;;;27.20;40.80;;;;;;4976670;28;20515;-70
2022/04/29 11:04:51;;;;;;;6.63;4.97;;;27.00;39.20;;;;;;4968760;28;20443;-71
2022/04/29 11:07:35;;;;;;;5.80;5.30;;;27.20;39.30;;;;;;4970713;28;20463;-67
2022/04/29 11:10:03;;;;;;;5.50;5.10;;;28.70;38.40;;;;;;4972427;28;20929;-69
2022/04/29 11:12:56;;;;;;;5.43;5.13;;;28.30;36.70;;;;;;4964054;28;20479;-67
2022/04/29 11:15:23;;;;;;;6.00;5.60;;;27.20;38.30;;;;;;4960210;28;20539;-67
2022/04/29 11:17:49;;;;;;;7.07;5.50;;;26.00;39.80;;;;;;4969520;28;20472;-69
2022/04/29 11:20:25;;;;;;;5.50;5.10;;;26.30;39.20;;;;;;4971108;28;20523;-69
2022/04/29 11:25:54;;;;;;;5.70;5.30;;;24.10;40.00;;;;;;4968560;28;20439;-69
2022/04/29 11:28:20;;;;;;;5.80;5.40;;;23.60;40.20;;;;;;4971824;28;20991;-70
2022/04/29 11:30:47;;;;;;;5.80;5.40;;;23.20;40.90;;;;;;4971577;28;20447;-70
2022/04/29 11:33:13;;;;;;;6.93;5.40;;;23.10;41.70;;;;;;4966922;28;20789;-66
2022/04/29 11:35:39;;;;;;;4.97;4.50;;;23.90;39.90;;;;;;4969531;28;20451;-70
2022/04/29 11:38:08;;;;;;;6.17;5.67;;;24.70;40.40;;;;;;4970037;28;20688;-68
2022/04/29 11:40:38;;;;;;;5.10;4.70;;;24.60;39.80;;;;;;4965635;28;20503;-68
2022/04/29 11:43:08;;;;;;;5.03;4.60;;;24.60;39.30;;;;;;4962817;28;20538;-69
2022/04/29 11:45:35;;;;;;;5.47;5.07;;;24.50;40.30;;;;;;4962976;28;20527;-67
2022/04/29 11:48:05;;;;;;;6.23;5.83;;;24.80;40.30;;;;;;4967989;28;20463;-69
2022/04/29 11:50:32;;;;;;;6.80;5.67;;;24.70;39.00;;;;;;4965744;28;20443;-67
2022/04/29 11:53:09;;;;;;;5.93;5.43;;;24.70;39.60;;;;;;4957788;28;20455;-69
2022/04/29 11:55:35;;;;;;;6.13;5.63;;;24.50;40.40;;;;;;4965912;28;21325;-68
2022/04/29 11:58:02;;;;;;;4.90;4.60;;;24.50;40.10;;;;;;4967554;28;20463;-68
2022/04/29 12:00:29;;;;;;;5.67;5.13;;;24.00;41.20;;;;;;4967888;28;20451;-68
2022/04/29 12:02:57;;;;;;;7.80;6.60;;;23.60;41.60;;;;;;4964766;28;20486;-68
2022/04/29 12:05:25;;;;;;;6.47;6.07;;;23.00;42.70;;;;;;4953860;28;20949;-69
2022/04/29 12:07:50;;;;;;;7.10;6.60;;;22.80;43.20;;;;;;4965757;28;20463;-69
2022/04/29 12:10:26;;;;;;;6.10;5.60;;;22.90;42.20;;;;;;4965927;28;20745;-69
2022/04/29 12:13:04;;;;;;;6.47;5.87;;;22.80;41.80;;;;;;4962284;28;20203;-69
2022/04/29 12:15:37;;;;;;;6.70;6.10;;;23.00;41.90;;;;;;4965425;28;20447;-68
2022/04/29 12:18:07;;;;;;;6.10;5.60;;;22.80;42.50;;;;;;4967244;28;20475;-68
2022/04/29 12:20:33;;;;;;;6.07;5.60;;;22.60;43.10;;;;;;4951051;28;20447;-68
2022/04/29 12:23:22;;;;;;;6.90;6.40;;;22.50;43.10;;;;;;4963100;28;20530;-69
2022/04/29 12:25:48;;;;;;;6.10;5.63;;;22.10;43.20;;;;;;4966109;28;20680;-67
2022/04/29 12:28:31;;;;;;;7.27;6.60;;;22.20;43.40;;;;;;4967791;28;21006;-68
2022/04/29 12:36:59;;;;;;;7.10;6.50;;;24.60;41.60;;;;;;4966268;28;20462;-69
2022/04/29 12:39:25;;;;;;;7.13;6.70;;;26.10;40.50;;;;;;4964360;28;20497;-66
2022/04/29 12:42:11;;;;;;;6.03;5.63;;;27.00;38.40;;;;;;4965490;28;20470;-67
2022/04/29 12:47:40;;;;;;;6.47;6.07;;;28.40;37.10;;;;;;4966757;28;20498;-69
2022/04/29 12:50:31;;;;;;;6.77;6.37;;;28.60;36.90;;;;;;4965620;28;20955;-66
2022/04/29 12:53:05;;;;;;;7.60;7.00;;;28.00;35.80;;;;;;4965108;28;20438;-69
2022/04/29 12:55:34;;;;;;;7.17;6.57;;;26.10;38.00;;;;;;4966061;28;20473;-68
2022/04/29 12:58:07;;;;;;;9.50;7.70;;;26.30;39.00;;;;;;4966644;28;20486;-69
2022/04/29 13:00:34;;;;;;;6.70;6.10;;;27.90;36.90;;;;;;4967686;28;20456;-68
2022/04/29 13:03:15;;;;;;;6.60;6.10;;;27.40;37.50;;;;;;4971111;28;20644;-69
2022/04/29 13:05:41;;;;;;;10.63;6.67;;;27.90;36.30;;;;;;4968658;28;20530;-69
2022/04/29 13:08:10;;;;;;;7.07;6.57;;;28.90;35.50;;;;;;4966311;28;20562;-69
2022/04/29 13:10:50;;;;;;;6.17;5.67;;;28.90;34.90;;;;;;4962018;28;20184;-69
2022/04/29 13:13:17;;;;;;;7.07;6.53;;;29.60;34.80;;;;;;4962228;28;20451;-69
2022/04/29 13:15:44;;;;;;;7.03;6.37;;;29.10;34.50;;;;;;4965745;28;20450;-69
2022/04/29 13:18:11;;;;;;;6.07;5.67;;;28.60;35.00;;;;;;4966928;28;20454;-66